sensor_id;sensor_type;location;lat;lon;timestamp;temperature;humidity
15707;DHT22;7953;54.302;10.128;2022-10-23T00:01:18;12.50;99.90
15707;DHT22;7953;54.302;10.128;2022-10-23T00:03:46;12.60;99.90
15707;DHT22;7953;54.302;10.128;2022-10-23T00:06:13;12.60;99.90
15707;DHT22;7953;54.302;10.128;2022-10-23T00:08:42;12.50;99.90
15707;DHT22;7953;54.302;10.128;2022-10-23T00:11:10;12.50;99.90
15707;DHT22;7953;54.302;10.128;2022-10-23T00:13:37;12.60;99.90
15707;DHT22;7953;54.302;10.128;2022-10-23T00:16:04;12.50;99.90
15707;DHT22;7953;54.302;10.128;2022-10-23T00:18:31;12.50;99.90
15707;DHT22;7953;54.302;10.128;2022-10-23T00:20:58;12.50;99.90
15707;DHT22;7953;54.302;10.128;2022-10-23T00:23:25;12.40;99.90
15707;DHT22;7953;54.302;10.128;2022-10-23T00:25:53;12.40;99.90
15707;DHT22;7953;54.302;10.128;2022-10-23T00:28:20;12.40;99.90
15707;DHT22;7953;54.302;10.128;2022-10-23T00:30:47;12.40;99.90
15707;DHT22;7953;54.302;10.128;2022-10-23T00:33:14;12.40;99.90
15707;DHT22;7953;54.302;10.128;2022-10-23T00:35:42;12.40;99.90
15707;DHT22;7953;54.302;10.128;2022-10-23T00:38:09;12.30;99.90
15707;DHT22;7953;54.302;10.128;2022-10-23T00:40:38;12.30;99.90
15707;DHT22;7953;54.302;10.128;2022-10-23T00:43:15;12.30;99.90
15707;DHT22;7953;54.302;10.128;2022-10-23T00:45:42;12.30;99.90
15707;DHT22;7953;54.302;10.128;2022-10-23T00:48:10;12.20;99.90
15707;DHT22;7953;54.302;10.128;2022-10-23T00:50:36;12.20;99.90
15707;DHT22;7953;54.302;10.128;2022-10-23T00:53:04;12.20;99.90
15707;DHT22;7953;54.302;10.128;2022-10-23T00:55:31;12.20;99.90
15707;DHT22;7953;54.302;10.128;2022-10-23T00:57:59;12.20;99.90
15707;DHT22;7953;54.302;10.128;2022-10-23T01:00:30;12.20;99.90
15707;DHT22;7953;54.302;10.128;2022-10-23T01:02:57;12.10;99.90
15707;DHT22;7953;54.302;10.128;2022-10-23T01:05:30;12.00;99.90
15707;DHT22;7953;54.302;10.128;2022-10-23T01:08:02;12.00;99.90
15707;DHT22;7953;54.302;10.128;2022-10-23T01:10:36;12.00;99.90
15707;DHT22;7953;54.302;10.128;2022-10-23T01:13:10;12.00;99.90
15707;DHT22;7953;54.302;10.128;2022-10-23T01:15:43;11.90;99.90
15707;DHT22;7953;54.302;10.128;2022-10-23T01:18:19;11.90;99.90
15707;DHT22;7953;54.302;10.128;2022-10-23T01:20:50;11.80;99.90
15707;DHT22;7953;54.302;10.128;2022-10-23T01:26:35;11.90;99.90
15707;DHT22;7953;54.302;10.128;2022-10-23T01:29:09;11.80;99.90
15707;DHT22;7953;54.302;10.128;2022-10-23T01:31:41;11.80;99.90
15707;DHT22;7953;54.302;10.128;2022-10-23T01:34:22;11.80;99.90
15707;DHT22;7953;54.302;10.128;2022-10-23T01:36:54;11.80;99.90
15707;DHT22;7953;54.302;10.128;2022-10-23T01:39:26;11.70;99.90
15707;DHT22;7953;54.302;10.128;2022-10-23T01:41:56;11.60;99.90
15707;DHT22;7953;54.302;10.128;2022-10-23T01:44:28;11.60;99.90
15707;DHT22;7953;54.302;10.128;2022-10-23T01:46:57;11.60;99.90
15707;DHT22;7953;54.302;10.128;2022-10-23T01:49:24;11.60;99.90
15707;DHT22;7953;54.302;10.128;2022-10-23T01:51:54;11.60;99.90
15707;DHT22;7953;54.302;10.128;2022-10-23T01:54:25;11.60;99.90
15707;DHT22;7953;54.302;10.128;2022-10-23T01:56:55;11.60;99.90
15707;DHT22;7953;54.302;10.128;2022-10-23T01:59:28;11.50;99.90
15707;DHT22;7953;54.302;10.128;2022-10-23T02:01:59;11.60;99.90
15707;DHT22;7953;54.302;10.128;2022-10-23T02:04:31;11.50;99.90
15707;DHT22;7953;54.302;10.128;2022-10-23T02:06:59;11.50;99.90
15707;DHT22;7953;54.302;10.128;2022-10-23T02:09:26;11.40;99.90
15707;DHT22;7953;54.302;10.128;2022-10-23T02:11:57;11.50;99.90
15707;DHT22;7953;54.302;10.128;2022-10-23T02:14:36;11.40;99.90
15707;DHT22;7953;54.302;10.128;2022-10-23T02:17:10;11.40;99.90
15707;DHT22;7953;54.302;10.128;2022-10-23T02:19:44;11.40;99.90
15707;DHT22;7953;54.302;10.128;2022-10-23T02:22:18;11.30;99.90
15707;DHT22;7953;54.302;10.128;2022-10-23T02:24:50;11.30;99.90
15707;DHT22;7953;54.302;10.128;2022-10-23T02:27:23;11.30;99.90
15707;DHT22;7953;54.302;10.128;2022-10-23T02:29:55;11.30;99.90
15707;DHT22;7953;54.302;10.128;2022-10-23T02:32:24;11.20;99.90
15707;DHT22;7953;54.302;10.128;2022-10-23T02:34:52;11.20;99.90
15707;DHT22;7953;54.302;10.128;2022-10-23T02:37:19;11.30;99.90
15707;DHT22;7953;54.302;10.128;2022-10-23T02:39:46;11.30;99.90
15707;DHT22;7953;54.302;10.128;2022-10-23T02:42:17;11.30;99.90
15707;DHT22;7953;54.302;10.128;2022-10-23T02:44:57;11.20;99.90
15707;DHT22;7953;54.302;10.128;2022-10-23T02:47:38;11.30;99.90
15707;DHT22;7953;54.302;10.128;2022-10-23T02:50:17;11.30;99.90
15707;DHT22;7953;54.302;10.128;2022-10-23T02:52:52;11.20;99.90
15707;DHT22;7953;54.302;10.128;2022-10-23T02:55:29;11.30;99.90
15707;DHT22;7953;54.302;10.128;2022-10-23T02:58:05;11.20;99.90
15707;DHT22;7953;54.302;10.128;2022-10-23T03:00:37;11.30;99.90
15707;DHT22;7953;54.302;10.128;2022-10-23T03:03:09;11.20;99.90
15707;DHT22;7953;54.302;10.128;2022-10-23T03:05:38;11.20;99.90
15707;DHT22;7953;54.302;10.128;2022-10-23T03:08:08;11.20;99.90
15707;DHT22;7953;54.302;10.128;2022-10-23T03:10:35;11.20;99.90
15707;DHT22;7953;54.302;10.128;2022-10-23T03:13:02;11.20;99.90
15707;DHT22;7953;54.302;10.128;2022-10-23T03:15:29;11.20;99.90
15707;DHT22;7953;54.302;10.128;2022-10-23T03:17:57;11.20;99.90
15707;DHT22;7953;54.302;10.128;2022-10-23T03:20:24;11.20;99.90
15707;DHT22;7953;54.302;10.128;2022-10-23T03:22:51;11.20;99.90
15707;DHT22;7953;54.302;10.128;2022-10-23T03:25:18;11.20;99.90
15707;DHT22;7953;54.302;10.128;2022-10-23T03:27:45;11.20;99.90
15707;DHT22;7953;54.302;10.128;2022-10-23T03:30:12;11.20;99.90
15707;DHT22;7953;54.302;10.128;2022-10-23T03:32:38;11.10;99.90
15707;DHT22;7953;54.302;10.128;2022-10-23T03:35:07;11.10;99.90
15707;DHT22;7953;54.302;10.128;2022-10-23T03:37:34;11.00;99.90
15707;DHT22;7953;54.302;10.128;2022-10-23T03:40:01;11.00;99.90
15707;DHT22;7953;54.302;10.128;2022-10-23T03:42:28;11.00;99.90
15707;DHT22;7953;54.302;10.128;2022-10-23T03:44:55;11.10;99.90
15707;DHT22;7953;54.302;10.128;2022-10-23T03:47:22;11.00;99.90
15707;DHT22;7953;54.302;10.128;2022-10-23T03:49:49;11.00;99.90
15707;DHT22;7953;54.302;10.128;2022-10-23T03:52:17;11.10;99.90
15707;DHT22;7953;54.302;10.128;2022-10-23T03:54:44;11.10;99.90
15707;DHT22;7953;54.302;10.128;2022-10-23T03:57:11;11.10;99.90
15707;DHT22;7953;54.302;10.128;2022-10-23T03:59:38;11.00;99.90
15707;DHT22;7953;54.302;10.128;2022-10-23T04:02:05;11.00;99.90
15707;DHT22;7953;54.302;10.128;2022-10-23T04:04:32;11.00;99.90
15707;DHT22;7953;54.302;10.128;2022-10-23T04:06:59;11.00;99.90
15707;DHT22;7953;54.302;10.128;2022-10-23T04:09:27;10.90;99.90
15707;DHT22;7953;54.302;10.128;2022-10-23T04:11:55;10.90;99.90
15707;DHT22;7953;54.302;10.128;2022-10-23T04:14:22;10.90;99.90
15707;DHT22;7953;54.302;10.128;2022-10-23T04:16:48;10.90;99.90
15707;DHT22;7953;54.302;10.128;2022-10-23T04:19:15;10.90;99.90
15707;DHT22;7953;54.302;10.128;2022-10-23T04:21:43;10.90;99.90
15707;DHT22;7953;54.302;10.128;2022-10-23T04:24:10;10.90;99.90
15707;DHT22;7953;54.302;10.128;2022-10-23T04:26:38;10.80;99.90
15707;DHT22;7953;54.302;10.128;2022-10-23T04:29:05;10.80;99.90
15707;DHT22;7953;54.302;10.128;2022-10-23T04:31:32;10.90;99.90
15707;DHT22;7953;54.302;10.128;2022-10-23T04:33:59;10.80;99.90
15707;DHT22;7953;54.302;10.128;2022-10-23T04:36:25;10.80;99.90
15707;DHT22;7953;54.302;10.128;2022-10-23T04:38:52;10.80;99.90
15707;DHT22;7953;54.302;10.128;2022-10-23T04:41:19;10.70;99.90
15707;DHT22;7953;54.302;10.128;2022-10-23T04:43:47;10.80;99.90
15707;DHT22;7953;54.302;10.128;2022-10-23T04:46:14;10.70;99.90
15707;DHT22;7953;54.302;10.128;2022-10-23T04:48:41;10.70;99.90
15707;DHT22;7953;54.302;10.128;2022-10-23T04:51:08;10.70;99.90
15707;DHT22;7953;54.302;10.128;2022-10-23T04:53:35;10.70;99.90
15707;DHT22;7953;54.302;10.128;2022-10-23T04:56:04;10.70;99.90
15707;DHT22;7953;54.302;10.128;2022-10-23T04:58:31;10.70;99.90
15707;DHT22;7953;54.302;10.128;2022-10-23T05:00:59;10.70;99.90
15707;DHT22;7953;54.302;10.128;2022-10-23T05:03:26;10.70;99.90
15707;DHT22;7953;54.302;10.128;2022-10-23T05:05:54;10.70;99.90
15707;DHT22;7953;54.302;10.128;2022-10-23T05:08:22;10.60;99.90
15707;DHT22;7953;54.302;10.128;2022-10-23T05:10:49;10.60;99.90
15707;DHT22;7953;54.302;10.128;2022-10-23T05:13:16;10.60;99.90
15707;DHT22;7953;54.302;10.128;2022-10-23T05:15:44;10.50;99.90
15707;DHT22;7953;54.302;10.128;2022-10-23T05:18:16;10.50;99.90
15707;DHT22;7953;54.302;10.128;2022-10-23T05:20:47;10.50;99.90
15707;DHT22;7953;54.302;10.128;2022-10-23T05:23:17;10.50;99.90
15707;DHT22;7953;54.302;10.128;2022-10-23T05:25:45;10.50;99.90
15707;DHT22;7953;54.302;10.128;2022-10-23T05:28:12;10.40;99.90
15707;DHT22;7953;54.302;10.128;2022-10-23T05:30:39;10.40;99.90
15707;DHT22;7953;54.302;10.128;2022-10-23T05:33:07;10.40;99.90
15707;DHT22;7953;54.302;10.128;2022-10-23T05:35:36;10.40;99.90
15707;DHT22;7953;54.302;10.128;2022-10-23T05:38:05;10.40;99.90
15707;DHT22;7953;54.302;10.128;2022-10-23T05:40:32;10.40;99.90
15707;DHT22;7953;54.302;10.128;2022-10-23T05:42:59;10.40;99.90
15707;DHT22;7953;54.302;10.128;2022-10-23T05:45:26;10.50;99.90
15707;DHT22;7953;54.302;10.128;2022-10-23T05:47:53;10.50;99.90
15707;DHT22;7953;54.302;10.128;2022-10-23T05:50:19;10.50;99.90
15707;DHT22;7953;54.302;10.128;2022-10-23T05:52:48;10.50;99.90
15707;DHT22;7953;54.302;10.128;2022-10-23T05:55:15;10.50;99.90
15707;DHT22;7953;54.302;10.128;2022-10-23T05:57:42;10.50;99.90
15707;DHT22;7953;54.302;10.128;2022-10-23T06:00:10;10.40;99.90
15707;DHT22;7953;54.302;10.128;2022-10-23T06:02:37;10.40;99.90
15707;DHT22;7953;54.302;10.128;2022-10-23T06:05:04;10.40;99.90
15707;DHT22;7953;54.302;10.128;2022-10-23T06:07:31;10.40;99.90
15707;DHT22;7953;54.302;10.128;2022-10-23T06:09:59;10.40;99.90
15707;DHT22;7953;54.302;10.128;2022-10-23T06:12:26;10.30;99.90
15707;DHT22;7953;54.302;10.128;2022-10-23T06:14:53;10.40;99.90
15707;DHT22;7953;54.302;10.128;2022-10-23T06:17:20;10.30;99.90
15707;DHT22;7953;54.302;10.128;2022-10-23T06:19:47;10.40;99.90
15707;DHT22;7953;54.302;10.128;2022-10-23T06:22:14;10.40;99.90
15707;DHT22;7953;54.302;10.128;2022-10-23T06:24:41;10.40;99.90
15707;DHT22;7953;54.302;10.128;2022-10-23T06:27:09;10.40;99.90
15707;DHT22;7953;54.302;10.128;2022-10-23T06:29:36;10.40;99.90
15707;DHT22;7953;54.302;10.128;2022-10-23T06:32:03;10.40;99.90
15707;DHT22;7953;54.302;10.128;2022-10-23T06:34:30;10.40;99.90
15707;DHT22;7953;54.302;10.128;2022-10-23T06:36:57;10.40;99.90
15707;DHT22;7953;54.302;10.128;2022-10-23T06:39:24;10.40;99.90
15707;DHT22;7953;54.302;10.128;2022-10-23T06:41:50;10.40;99.90
15707;DHT22;7953;54.302;10.128;2022-10-23T06:44:19;10.50;99.90
15707;DHT22;7953;54.302;10.128;2022-10-23T06:46:46;10.50;99.90
15707;DHT22;7953;54.302;10.128;2022-10-23T06:49:15;10.50;99.90
15707;DHT22;7953;54.302;10.128;2022-10-23T06:51:42;10.40;99.90
15707;DHT22;7953;54.302;10.128;2022-10-23T06:54:10;10.40;99.90
15707;DHT22;7953;54.302;10.128;2022-10-23T06:56:37;10.50;99.90
15707;DHT22;7953;54.302;10.128;2022-10-23T06:59:04;10.50;99.90
15707;DHT22;7953;54.302;10.128;2022-10-23T07:01:33;10.50;99.90
15707;DHT22;7953;54.302;10.128;2022-10-23T07:04:01;10.50;99.90
15707;DHT22;7953;54.302;10.128;2022-10-23T07:06:27;10.60;99.90
15707;DHT22;7953;54.302;10.128;2022-10-23T07:08:54;10.60;99.90
15707;DHT22;7953;54.302;10.128;2022-10-23T07:11:21;10.60;99.90
15707;DHT22;7953;54.302;10.128;2022-10-23T07:13:48;10.60;99.90
15707;DHT22;7953;54.302;10.128;2022-10-23T07:16:16;10.60;99.90
15707;DHT22;7953;54.302;10.128;2022-10-23T07:18:45;10.60;99.90
15707;DHT22;7953;54.302;10.128;2022-10-23T07:21:12;10.60;99.90
15707;DHT22;7953;54.302;10.128;2022-10-23T07:23:39;10.60;99.90
15707;DHT22;7953;54.302;10.128;2022-10-23T07:26:07;10.70;99.90
15707;DHT22;7953;54.302;10.128;2022-10-23T07:28:35;10.80;99.90
15707;DHT22;7953;54.302;10.128;2022-10-23T07:31:03;10.80;99.90
15707;DHT22;7953;54.302;10.128;2022-10-23T07:33:30;10.80;99.90
15707;DHT22;7953;54.302;10.128;2022-10-23T07:35:58;10.80;99.90
15707;DHT22;7953;54.302;10.128;2022-10-23T07:38:25;10.80;99.90
15707;DHT22;7953;54.302;10.128;2022-10-23T07:40:53;10.90;99.90
15707;DHT22;7953;54.302;10.128;2022-10-23T07:43:22;11.00;99.90
15707;DHT22;7953;54.302;10.128;2022-10-23T07:45:50;11.00;99.90
15707;DHT22;7953;54.302;10.128;2022-10-23T07:48:17;11.00;99.90
15707;DHT22;7953;54.302;10.128;2022-10-23T07:50:45;11.00;99.90
15707;DHT22;7953;54.302;10.128;2022-10-23T07:53:17;11.10;99.90
15707;DHT22;7953;54.302;10.128;2022-10-23T07:55:51;11.20;99.90
15707;DHT22;7953;54.302;10.128;2022-10-23T07:58:18;11.20;99.90
15707;DHT22;7953;54.302;10.128;2022-10-23T08:00:45;11.20;99.90
15707;DHT22;7953;54.302;10.128;2022-10-23T08:03:17;11.20;99.90
15707;DHT22;7953;54.302;10.128;2022-10-23T08:05:44;11.10;99.90
15707;DHT22;7953;54.302;10.128;2022-10-23T08:08:11;11.10;99.90
15707;DHT22;7953;54.302;10.128;2022-10-23T08:10:40;11.20;99.90
15707;DHT22;7953;54.302;10.128;2022-10-23T08:13:10;11.30;99.90
15707;DHT22;7953;54.302;10.128;2022-10-23T08:15:38;11.20;99.90
15707;DHT22;7953;54.302;10.128;2022-10-23T08:18:05;11.20;99.90
15707;DHT22;7953;54.302;10.128;2022-10-23T08:20:36;11.30;99.90
15707;DHT22;7953;54.302;10.128;2022-10-23T08:23:03;11.40;99.90
15707;DHT22;7953;54.302;10.128;2022-10-23T08:25:30;11.60;99.90
15707;DHT22;7953;54.302;10.128;2022-10-23T08:27:58;11.70;99.90
15707;DHT22;7953;54.302;10.128;2022-10-23T08:30:25;11.60;99.90
15707;DHT22;7953;54.302;10.128;2022-10-23T08:32:52;11.70;99.90
15707;DHT22;7953;54.302;10.128;2022-10-23T08:35:19;11.70;99.90
15707;DHT22;7953;54.302;10.128;2022-10-23T08:37:46;11.60;99.90
15707;DHT22;7953;54.302;10.128;2022-10-23T08:40:14;11.70;99.90
15707;DHT22;7953;54.302;10.128;2022-10-23T08:42:43;11.70;99.90
15707;DHT22;7953;54.302;10.128;2022-10-23T08:45:25;11.70;99.90
15707;DHT22;7953;54.302;10.128;2022-10-23T08:47:57;11.80;99.90
15707;DHT22;7953;54.302;10.128;2022-10-23T08:50:29;11.90;99.90
15707;DHT22;7953;54.302;10.128;2022-10-23T08:53:01;11.80;99.90
15707;DHT22;7953;54.302;10.128;2022-10-23T08:55:30;11.90;99.90
15707;DHT22;7953;54.302;10.128;2022-10-23T08:58:03;11.90;99.90
15707;DHT22;7953;54.302;10.128;2022-10-23T09:00:33;11.90;99.90
15707;DHT22;7953;54.302;10.128;2022-10-23T09:03:01;11.90;99.90
15707;DHT22;7953;54.302;10.128;2022-10-23T09:05:32;12.00;99.90
15707;DHT22;7953;54.302;10.128;2022-10-23T09:08:10;12.10;99.90
15707;DHT22;7953;54.302;10.128;2022-10-23T09:11:03;12.10;99.90
15707;DHT22;7953;54.302;10.128;2022-10-23T09:13:55;12.30;99.90
15707;DHT22;7953;54.302;10.128;2022-10-23T09:16:35;12.30;99.90
15707;DHT22;7953;54.302;10.128;2022-10-23T09:19:12;12.30;99.90
15707;DHT22;7953;54.302;10.128;2022-10-23T09:21:40;12.40;99.90
15707;DHT22;7953;54.302;10.128;2022-10-23T09:24:13;12.50;99.90
15707;DHT22;7953;54.302;10.128;2022-10-23T09:26:42;12.60;99.90
15707;DHT22;7953;54.302;10.128;2022-10-23T09:29:19;12.60;99.90
15707;DHT22;7953;54.302;10.128;2022-10-23T09:31:50;12.60;99.90
15707;DHT22;7953;54.302;10.128;2022-10-23T09:34:20;12.70;99.90
15707;DHT22;7953;54.302;10.128;2022-10-23T09:36:52;12.70;99.90
15707;DHT22;7953;54.302;10.128;2022-10-23T09:39:26;12.80;99.90
15707;DHT22;7953;54.302;10.128;2022-10-23T09:41:53;12.80;99.90
15707;DHT22;7953;54.302;10.128;2022-10-23T09:44:22;12.90;99.90
15707;DHT22;7953;54.302;10.128;2022-10-23T09:46:52;12.90;99.90
15707;DHT22;7953;54.302;10.128;2022-10-23T09:49:21;13.00;99.90
15707;DHT22;7953;54.302;10.128;2022-10-23T09:51:59;13.00;99.90
15707;DHT22;7953;54.302;10.128;2022-10-23T09:54:28;13.00;99.90
15707;DHT22;7953;54.302;10.128;2022-10-23T09:57:13;13.00;99.90
15707;DHT22;7953;54.302;10.128;2022-10-23T09:59:41;13.10;99.90
15707;DHT22;7953;54.302;10.128;2022-10-23T10:02:20;13.10;99.90
15707;DHT22;7953;54.302;10.128;2022-10-23T10:04:50;13.20;99.90
15707;DHT22;7953;54.302;10.128;2022-10-23T10:07:19;13.20;99.90
15707;DHT22;7953;54.302;10.128;2022-10-23T10:09:46;13.30;99.90
15707;DHT22;7953;54.302;10.128;2022-10-23T10:12:27;13.30;99.90
15707;DHT22;7953;54.302;10.128;2022-10-23T10:15:02;13.30;99.90
15707;DHT22;7953;54.302;10.128;2022-10-23T10:17:40;13.30;99.90
15707;DHT22;7953;54.302;10.128;2022-10-23T10:20:28;13.30;99.90
15707;DHT22;7953;54.302;10.128;2022-10-23T10:23:03;13.30;99.90
15707;DHT22;7953;54.302;10.128;2022-10-23T10:25:36;13.40;99.90
15707;DHT22;7953;54.302;10.128;2022-10-23T10:28:21;13.40;99.90
15707;DHT22;7953;54.302;10.128;2022-10-23T10:31:02;13.50;99.90
15707;DHT22;7953;54.302;10.128;2022-10-23T10:33:36;13.60;99.90
15707;DHT22;7953;54.302;10.128;2022-10-23T10:36:25;13.70;99.90
15707;DHT22;7953;54.302;10.128;2022-10-23T10:38:57;13.80;99.90
15707;DHT22;7953;54.302;10.128;2022-10-23T10:41:52;13.80;99.90
15707;DHT22;7953;54.302;10.128;2022-10-23T10:44:49;13.90;99.90
15707;DHT22;7953;54.302;10.128;2022-10-23T10:47:21;14.00;99.90
15707;DHT22;7953;54.302;10.128;2022-10-23T10:50:05;14.10;99.90
15707;DHT22;7953;54.302;10.128;2022-10-23T10:52:42;14.20;99.90
15707;DHT22;7953;54.302;10.128;2022-10-23T10:55:16;14.20;99.90
15707;DHT22;7953;54.302;10.128;2022-10-23T10:57:47;14.20;99.90
15707;DHT22;7953;54.302;10.128;2022-10-23T11:00:17;14.20;99.90
15707;DHT22;7953;54.302;10.128;2022-10-23T11:02:47;14.20;99.90
15707;DHT22;7953;54.302;10.128;2022-10-23T11:05:24;14.20;99.90
15707;DHT22;7953;54.302;10.128;2022-10-23T11:07:55;14.20;99.90
15707;DHT22;7953;54.302;10.128;2022-10-23T11:10:24;14.20;99.90
15707;DHT22;7953;54.302;10.128;2022-10-23T11:15:27;14.20;99.90
15707;DHT22;7953;54.302;10.128;2022-10-23T11:18:02;14.10;99.90
15707;DHT22;7953;54.302;10.128;2022-10-23T11:24:48;14.20;99.90
15707;DHT22;7953;54.302;10.128;2022-10-23T11:27:36;14.20;99.90
15707;DHT22;7953;54.302;10.128;2022-10-23T11:30:28;14.20;99.90
15707;DHT22;7953;54.302;10.128;2022-10-23T11:33:33;14.30;99.90
15707;DHT22;7953;54.302;10.128;2022-10-23T11:36:12;14.40;99.90
15707;DHT22;7953;54.302;10.128;2022-10-23T11:39:18;14.40;99.90
15707;DHT22;7953;54.302;10.128;2022-10-23T11:42:10;14.50;99.90
15707;DHT22;7953;54.302;10.128;2022-10-23T11:44:45;14.50;99.90
15707;DHT22;7953;54.302;10.128;2022-10-23T11:47:33;14.50;99.90
15707;DHT22;7953;54.302;10.128;2022-10-23T11:50:31;14.60;99.90
15707;DHT22;7953;54.302;10.128;2022-10-23T11:53:05;14.60;99.90
15707;DHT22;7953;54.302;10.128;2022-10-23T11:55:35;14.60;99.90
15707;DHT22;7953;54.302;10.128;2022-10-23T11:58:22;14.60;99.90
15707;DHT22;7953;54.302;10.128;2022-10-23T12:01:40;14.70;99.90
15707;DHT22;7953;54.302;10.128;2022-10-23T12:04:44;14.70;99.90
15707;DHT22;7953;54.302;10.128;2022-10-23T12:07:40;14.80;99.90
15707;DHT22;7953;54.302;10.128;2022-10-23T12:10:29;14.80;99.90
15707;DHT22;7953;54.302;10.128;2022-10-23T12:13:29;14.80;99.90
15707;DHT22;7953;54.302;10.128;2022-10-23T12:15:57;14.80;99.90
15707;DHT22;7953;54.302;10.128;2022-10-23T12:18:23;14.80;99.90
15707;DHT22;7953;54.302;10.128;2022-10-23T12:20:53;14.80;99.90
15707;DHT22;7953;54.302;10.128;2022-10-23T12:23:38;14.90;99.90
15707;DHT22;7953;54.302;10.128;2022-10-23T12:26:37;14.80;99.90
15707;DHT22;7953;54.302;10.128;2022-10-23T12:29:15;14.90;99.90
15707;DHT22;7953;54.302;10.128;2022-10-23T12:31:49;14.80;99.90
15707;DHT22;7953;54.302;10.128;2022-10-23T12:34:29;14.90;99.90
15707;DHT22;7953;54.302;10.128;2022-10-23T12:40:06;15.00;99.90
15707;DHT22;7953;54.302;10.128;2022-10-23T12:42:35;15.10;99.90
15707;DHT22;7953;54.302;10.128;2022-10-23T12:45:14;15.10;99.90
15707;DHT22;7953;54.302;10.128;2022-10-23T12:47:42;15.10;99.90
15707;DHT22;7953;54.302;10.128;2022-10-23T12:50:16;15.10;99.90
15707;DHT22;7953;54.302;10.128;2022-10-23T12:52:50;15.10;99.90
15707;DHT22;7953;54.302;10.128;2022-10-23T12:55:17;15.10;99.90
15707;DHT22;7953;54.302;10.128;2022-10-23T12:57:46;15.20;99.90
15707;DHT22;7953;54.302;10.128;2022-10-23T13:00:18;15.20;99.90
15707;DHT22;7953;54.302;10.128;2022-10-23T13:02:46;15.30;99.90
15707;DHT22;7953;54.302;10.128;2022-10-23T13:05:23;15.30;99.90
15707;DHT22;7953;54.302;10.128;2022-10-23T13:07:51;15.30;99.90
15707;DHT22;7953;54.302;10.128;2022-10-23T13:10:19;15.30;99.90
15707;DHT22;7953;54.302;10.128;2022-10-23T13:12:52;15.30;99.90
15707;DHT22;7953;54.302;10.128;2022-10-23T13:15:20;15.40;99.90
15707;DHT22;7953;54.302;10.128;2022-10-23T13:18:00;15.40;99.90
15707;DHT22;7953;54.302;10.128;2022-10-23T13:20:29;15.30;99.90
15707;DHT22;7953;54.302;10.128;2022-10-23T13:22:59;15.30;99.90
15707;DHT22;7953;54.302;10.128;2022-10-23T13:25:28;15.30;99.90
15707;DHT22;7953;54.302;10.128;2022-10-23T13:28:20;15.30;99.90
15707;DHT22;7953;54.302;10.128;2022-10-23T13:31:20;15.30;99.90
15707;DHT22;7953;54.302;10.128;2022-10-23T13:33:50;15.30;99.90
15707;DHT22;7953;54.302;10.128;2022-10-23T13:36:20;15.30;99.90
15707;DHT22;7953;54.302;10.128;2022-10-23T13:38:59;15.30;99.90
15707;DHT22;7953;54.302;10.128;2022-10-23T13:41:27;15.30;99.90
15707;DHT22;7953;54.302;10.128;2022-10-23T13:43:56;15.30;99.90
15707;DHT22;7953;54.302;10.128;2022-10-23T13:46:23;15.30;99.90
15707;DHT22;7953;54.302;10.128;2022-10-23T13:48:51;15.30;99.90
15707;DHT22;7953;54.302;10.128;2022-10-23T13:51:20;15.30;99.90
15707;DHT22;7953;54.302;10.128;2022-10-23T13:53:47;15.30;99.90
15707;DHT22;7953;54.302;10.128;2022-10-23T13:56:17;15.30;99.90
15707;DHT22;7953;54.302;10.128;2022-10-23T13:58:44;15.30;99.90
15707;DHT22;7953;54.302;10.128;2022-10-23T14:01:17;15.30;99.90
15707;DHT22;7953;54.302;10.128;2022-10-23T14:03:46;15.30;99.90
15707;DHT22;7953;54.302;10.128;2022-10-23T14:06:13;15.20;99.90
15707;DHT22;7953;54.302;10.128;2022-10-23T14:08:40;15.30;99.90
15707;DHT22;7953;54.302;10.128;2022-10-23T14:11:07;15.20;99.90
15707;DHT22;7953;54.302;10.128;2022-10-23T14:13:34;15.20;99.90
15707;DHT22;7953;54.302;10.128;2022-10-23T14:16:01;15.20;99.90
15707;DHT22;7953;54.302;10.128;2022-10-23T14:18:29;15.20;99.90
15707;DHT22;7953;54.302;10.128;2022-10-23T14:20:59;15.20;99.90
15707;DHT22;7953;54.302;10.128;2022-10-23T14:23:26;15.10;99.90
15707;DHT22;7953;54.302;10.128;2022-10-23T14:25:53;15.10;99.90
15707;DHT22;7953;54.302;10.128;2022-10-23T14:28:20;15.10;99.90
15707;DHT22;7953;54.302;10.128;2022-10-23T14:30:47;15.00;99.90
15707;DHT22;7953;54.302;10.128;2022-10-23T14:33:13;15.00;99.90
15707;DHT22;7953;54.302;10.128;2022-10-23T14:35:42;15.00;99.90
15707;DHT22;7953;54.302;10.128;2022-10-23T14:38:09;15.00;99.90
15707;DHT22;7953;54.302;10.128;2022-10-23T14:40:36;15.00;99.90
15707;DHT22;7953;54.302;10.128;2022-10-23T14:43:03;15.00;99.90
15707;DHT22;7953;54.302;10.128;2022-10-23T14:45:30;14.90;99.90
15707;DHT22;7953;54.302;10.128;2022-10-23T14:47:57;14.90;99.90
15707;DHT22;7953;54.302;10.128;2022-10-23T14:50:25;14.90;99.90
15707;DHT22;7953;54.302;10.128;2022-10-23T14:52:53;14.90;99.90
15707;DHT22;7953;54.302;10.128;2022-10-23T14:55:20;14.80;99.90
15707;DHT22;7953;54.302;10.128;2022-10-23T14:57:47;14.90;99.90
15707;DHT22;7953;54.302;10.128;2022-10-23T15:00:14;14.80;99.90
15707;DHT22;7953;54.302;10.128;2022-10-23T15:02:41;14.80;99.90
15707;DHT22;7953;54.302;10.128;2022-10-23T15:05:08;14.80;99.90
15707;DHT22;7953;54.302;10.128;2022-10-23T15:07:35;14.80;99.90
15707;DHT22;7953;54.302;10.128;2022-10-23T15:10:04;14.70;99.90
15707;DHT22;7953;54.302;10.128;2022-10-23T15:12:31;14.70;99.90
15707;DHT22;7953;54.302;10.128;2022-10-23T15:14:58;14.70;99.90
15707;DHT22;7953;54.302;10.128;2022-10-23T15:17:25;14.70;99.90
15707;DHT22;7953;54.302;10.128;2022-10-23T15:19:52;14.60;99.90
15707;DHT22;7953;54.302;10.128;2022-10-23T15:22:19;14.60;99.90
15707;DHT22;7953;54.302;10.128;2022-10-23T15:24:47;14.60;99.90
15707;DHT22;7953;54.302;10.128;2022-10-23T15:27:15;14.60;99.90
15707;DHT22;7953;54.302;10.128;2022-10-23T15:29:42;14.60;99.90
15707;DHT22;7953;54.302;10.128;2022-10-23T15:32:09;14.60;99.90
15707;DHT22;7953;54.302;10.128;2022-10-23T15:34:36;14.50;99.90
15707;DHT22;7953;54.302;10.128;2022-10-23T15:37:06;14.50;99.90
15707;DHT22;7953;54.302;10.128;2022-10-23T15:39:33;14.40;99.90
15707;DHT22;7953;54.302;10.128;2022-10-23T15:42:01;14.40;99.90
15707;DHT22;7953;54.302;10.128;2022-10-23T15:44:31;14.40;99.90
15707;DHT22;7953;54.302;10.128;2022-10-23T15:46:58;14.40;99.90
15707;DHT22;7953;54.302;10.128;2022-10-23T15:49:26;14.30;99.90
15707;DHT22;7953;54.302;10.128;2022-10-23T15:51:54;14.30;99.90
15707;DHT22;7953;54.302;10.128;2022-10-23T15:54:21;14.30;99.90
15707;DHT22;7953;54.302;10.128;2022-10-23T15:56:50;14.20;99.90
15707;DHT22;7953;54.302;10.128;2022-10-23T15:59:18;14.30;99.90
15707;DHT22;7953;54.302;10.128;2022-10-23T16:01:46;14.20;99.90
15707;DHT22;7953;54.302;10.128;2022-10-23T16:04:13;14.20;99.90
15707;DHT22;7953;54.302;10.128;2022-10-23T16:06:40;14.20;99.90